Terminal Aerodrome Forecast
Issued by NWS Detroit/Pontiac, MI

Home | Current Version | Previous Version | Text Only | Print | Product List | Glossary On
Versions: 1 2 3 4 5 6 7 8 9 10 11 12 13 14 15 16
000
FTUS43 KDTX 232329
TAFFNT
TAF
KFNT 232329Z 2400/2424 33005KT P6SM FEW060
     FM241000 35005KT P6SM SCT020 BKN200
     FM241500 33007KT P6SM SCT040 BKN050 BKN150=

USA.gov is the U.S. government's official web portal to all federal, state and local government web resources and services.